createdAt,value
2023-02-17T00:14:08.292Z,102388.81
2023-02-17T00:48:31.548Z,102405.97
2023-02-17T01:08:51.658Z,102403.91
2023-02-17T01:26:07.028Z,102442.69
2023-02-17T01:46:59.748Z,102457.41
2023-02-17T01:50:50.097Z,102449.03
2023-02-17T03:16:32.832Z,102431.03
2023-02-17T03:24:30.365Z,102431.78
2023-02-17T03:41:05.443Z,102425.25
2023-02-17T03:56:36.205Z,102407.72
2023-02-17T04:16:19.719Z,102391.78
2023-02-17T04:27:48.509Z,102389.16
2023-02-17T04:43:51.237Z,102366.19
2023-02-17T04:55:24.134Z,102365.97
2023-02-17T05:27:54.125Z,102371.03
2023-02-17T05:32:15.067Z,102360.41
2023-02-17T05:35:36.574Z,102350.97
2023-02-17T05:55:36.785Z,102357.72
2023-02-17T06:03:15.612Z,102370.44
2023-02-17T06:07:28.091Z,102363.31
2023-02-17T06:15:17.919Z,102359.41
2023-02-17T06:38:20.649Z,102376.28
2023-02-17T07:47:55.373Z,102453.34
2023-02-17T07:55:31.380Z,102434.19
2023-02-17T08:04:32.696Z,102440.13
2023-02-17T08:27:17.049Z,102469.94
2023-02-17T08:30:41.904Z,102482.78
2023-02-17T08:34:36.064Z,102485.94
2023-02-17T08:54:59.883Z,102472.44
2023-02-17T08:57:44.964Z,102488.03
2023-02-17T09:00:57.253Z,102480.56
2023-02-17T09:03:50.198Z,102491.13
2023-02-17T09:06:55.315Z,102503.69
2023-02-17T09:09:28.316Z,102504.66
2023-02-17T09:12:04.437Z,102495.75
2023-02-17T09:20:51.958Z,102514.41
2023-02-17T09:23:27.006Z,102517.44
2023-02-17T09:30:19.769Z,102517.63
2023-02-17T09:32:47.949Z,102526.00
2023-02-17T09:35:16.646Z,102522.50
2023-02-17T09:37:44.895Z,102518.28
2023-02-17T09:40:18.515Z,102526.97
2023-02-17T09:42:46.737Z,102539.50
2023-02-17T09:45:17.411Z,102543.03
2023-02-17T09:47:48.372Z,102537.44
2023-02-17T09:50:18.038Z,102524.38
2023-02-17T09:52:49.163Z,102549.31
2023-02-17T09:55:19.444Z,102532.59
2023-02-17T09:57:50.745Z,102555.59
2023-02-17T10:00:20.509Z,102551.75
2023-02-17T10:02:56.483Z,102555.38
2023-02-17T10:05:26.187Z,102531.63
2023-02-17T10:11:05.954Z,102531.34
2023-02-17T10:13:46.181Z,102558.78
2023-02-17T10:16:25.104Z,102566.03
2023-02-17T10:19:08.150Z,102552.16
2023-02-17T10:21:45.124Z,102564.63
2023-02-17T10:24:20.830Z,102565.94
2023-02-17T10:27:52.327Z,102539.19
2023-02-17T10:37:16.847Z,102545.22
2023-02-17T10:40:23.244Z,102546.94
2023-02-17T10:49:59.634Z,102578.31
2023-02-17T10:56:45.656Z,102571.81
2023-02-17T11:03:01.515Z,102557.31
2023-02-17T11:24:16.214Z,102624.66
2023-02-17T11:26:45.039Z,102632.16
2023-02-17T11:29:35.959Z,102633.53
2023-02-17T11:32:11.447Z,102607.72
2023-02-17T11:35:09.252Z,102617.13
2023-02-17T11:37:42.532Z,102604.56
2023-02-17T11:40:38.612Z,102615.41
2023-02-17T11:43:39.730Z,102617.72
2023-02-17T11:47:04.758Z,102618.34
2023-02-17T11:51:08.475Z,102607.19
2023-02-17T11:54:11.724Z,102604.94
2023-02-17T11:57:05.320Z,102631.09
2023-02-17T12:00:32.182Z,102614.09
2023-02-17T12:03:36.653Z,102621.13
2023-02-17T12:18:40.153Z,102621.13
2023-02-17T12:21:41.632Z,102607.59
2023-02-17T12:25:35.159Z,102604.81
2023-02-17T12:29:18.032Z,102599.50
2023-02-17T12:33:18.538Z,102584.34
2023-02-17T12:51:08.679Z,102581.16
2023-02-17T13:01:12.630Z,102559.63
2023-02-17T13:04:36.546Z,102567.34
2023-02-17T13:08:00.689Z,102545.44
2023-02-17T13:11:39.680Z,102557.31
2023-02-17T13:14:39.026Z,102545.56
2023-02-17T13:25:09.001Z,102539.50
2023-02-17T13:27:46.334Z,102537.78
2023-02-17T13:30:34.668Z,102543.16
2023-02-17T13:33:27.132Z,102543.47
2023-02-17T13:39:06.566Z,102545.44
2023-02-17T13:41:53.092Z,102527.69
2023-02-17T13:44:46.658Z,102536.44
2023-02-17T13:47:40.021Z,102538.16
2023-02-17T13:50:30.581Z,102545.44
2023-02-17T13:53:11.319Z,102535.16
2023-02-17T13:56:00.800Z,102540.47
2023-02-17T13:58:41.284Z,102541.34
2023-02-17T14:01:22.201Z,102529.78
2023-02-17T14:03:51.764Z,102525.19
2023-02-17T14:06:35.439Z,102523.97
2023-02-17T14:09:32.839Z,102516.84
2023-02-17T14:12:08.292Z,102531.19
2023-02-17T14:14:47.092Z,102529.31
2023-02-17T14:17:32.689Z,102503.59
2023-02-17T14:20:07.046Z,102527.56
2023-02-17T14:25:37.922Z,102533.69
2023-02-17T14:28:43.147Z,102516.72
2023-02-17T14:31:26.556Z,102475.97
2023-02-17T14:34:00.284Z,102500.44
2023-02-17T14:36:54.342Z,102522.66
2023-02-17T14:39:53.569Z,102523.50
2023-02-17T14:42:30.134Z,102505.34
2023-02-17T14:45:01.788Z,102497.78
2023-02-17T14:47:42.263Z,102492.94
2023-02-17T14:50:29.292Z,102496.78
2023-02-17T14:53:17.786Z,102508.56
2023-02-17T14:56:03.680Z,102513.41
2023-02-17T14:58:35.342Z,102514.84
2023-02-17T15:01:34.831Z,102477.63
2023-02-17T15:04:18.702Z,102487.56
2023-02-17T15:07:02.935Z,102507.44
2023-02-17T15:09:56.081Z,102515.47
2023-02-17T15:12:30.579Z,102492.91
2023-02-17T15:15:45.204Z,102484.91
2023-02-17T15:18:53.544Z,102523.22
2023-02-17T15:21:28.503Z,102521.59
2023-02-17T15:24:16.693Z,102524.38
2023-02-17T15:27:01.187Z,102513.25
2023-02-17T15:29:34.933Z,102504.91
2023-02-17T15:32:25.893Z,102493.88
2023-02-17T15:35:34.045Z,102494.34
2023-02-17T15:38:15.116Z,102510.00
2023-02-17T15:40:46.055Z,102510.22
2023-02-17T15:43:26.317Z,102507.22
2023-02-17T15:49:05.904Z,102517.88
2023-02-17T15:51:35.445Z,102516.41
2023-02-17T15:54:08.480Z,102513.72
2023-02-17T15:57:10.363Z,102533.13
2023-02-17T15:59:40.807Z,102507.53
2023-02-17T16:02:22.697Z,102518.94
2023-02-17T16:05:00.905Z,102525.59
2023-02-17T16:07:48.585Z,102547.59
2023-02-17T16:10:19.971Z,102534.66
2023-02-17T16:12:56.959Z,102534.34
2023-02-17T16:15:26.723Z,102531.41
2023-02-17T16:20:51.014Z,102531.66
2023-02-17T16:23:22.494Z,102525.13
2023-02-17T16:25:51.129Z,102510.31
2023-02-17T16:28:25.482Z,102528.47
2023-02-17T16:31:03.744Z,102527.72
2023-02-17T16:33:32.066Z,102541.28
2023-02-17T16:36:14.924Z,102531.13
2023-02-17T16:38:58.034Z,102524.84
2023-02-17T16:41:26.563Z,102546.16
2023-02-17T16:44:08.375Z,102560.44
2023-02-17T16:46:37.823Z,102544.06
2023-02-17T16:49:12.801Z,102551.94
2023-02-17T16:51:40.847Z,102556.03
2023-02-17T16:54:10.758Z,102555.78
2023-02-17T16:56:40.629Z,102544.41
2023-02-17T16:59:08.678Z,102556.63
2023-02-17T17:01:36.593Z,102564.28
2023-02-17T17:04:05.449Z,102555.78
2023-02-17T17:06:33.545Z,102563.41
2023-02-17T17:09:01.513Z,102564.84
2023-02-17T17:11:30.892Z,102572.50
2023-02-17T17:13:58.834Z,102570.69
2023-02-17T17:16:28.100Z,102570.22
2023-02-17T17:18:56.113Z,102565.13
2023-02-17T17:21:24.123Z,102563.41
2023-02-17T17:23:52.056Z,102582.19
2023-02-17T17:26:25.352Z,102572.25
2023-02-17T17:28:55.238Z,102567.91
2023-02-17T17:31:23.752Z,102583.44
2023-02-17T17:33:51.901Z,102578.56
2023-02-17T17:36:23.620Z,102587.53
2023-02-17T17:38:51.850Z,102587.63
2023-02-17T17:41:22.373Z,102586.03
2023-02-17T17:43:54.420Z,102589.53
2023-02-17T17:46:25.265Z,102593.81
2023-02-17T17:48:53.364Z,102598.16
2023-02-17T17:51:22.176Z,102599.63
2023-02-17T17:53:50.532Z,102598.16
2023-02-17T17:56:23.549Z,102599.03
2023-02-17T17:58:51.872Z,102592.47
2023-02-17T18:01:20.508Z,102602.00
2023-02-17T18:03:50.311Z,102602.00
2023-02-17T18:06:20.865Z,102597.78
2023-02-17T18:08:48.969Z,102596.19
2023-02-17T18:11:17.842Z,102612.91
2023-02-17T18:13:46.129Z,102598.63
2023-02-17T18:16:14.333Z,102604.66
2023-02-17T18:18:42.482Z,102607.78
2023-02-17T18:21:18.077Z,102610.97
2023-02-17T18:26:29.342Z,102602.47
2023-02-17T18:28:57.618Z,102609.00
2023-02-17T18:31:28.096Z,102612.91
2023-02-17T18:33:57.735Z,102616.53
2023-02-17T18:36:28.199Z,102619.06
2023-02-17T18:38:56.403Z,102619.94
2023-02-17T18:41:26.731Z,102612.91
2023-02-17T18:43:58.920Z,102612.25
2023-02-17T18:46:29.808Z,102619.06
2023-02-17T18:48:58.043Z,102635.66
2023-02-17T18:51:27.755Z,102622.69
2023-02-17T18:53:56.430Z,102625.13
2023-02-17T18:56:26.108Z,102630.78
2023-02-17T18:58:55.200Z,102635.66
2023-02-17T19:01:25.839Z,102643.66
2023-02-17T19:03:57.525Z,102646.31
2023-02-17T19:06:29.938Z,102659.72
2023-02-17T19:08:59.521Z,102654.31
2023-02-17T19:11:48.659Z,102654.31
2023-02-17T19:14:21.262Z,102666.38
2023-02-17T19:16:55.967Z,102663.59
2023-02-17T19:19:25.339Z,102653.91
2023-02-17T19:21:54.705Z,102666.59
2023-02-17T19:24:22.793Z,102662.53
2023-02-17T19:27:09.382Z,102658.03
2023-02-17T19:29:49.966Z,102662.28
2023-02-17T19:35:11.280Z,102629.25
2023-02-17T19:37:48.397Z,102648.47
2023-02-17T19:40:22.368Z,102645.97
2023-02-17T19:42:51.653Z,102654.88
2023-02-17T19:45:23.350Z,102649.03
2023-02-17T19:48:02.104Z,102653.28
2023-02-17T19:50:30.258Z,102663.69
2023-02-17T19:53:10.361Z,102653.06
2023-02-17T19:55:45.811Z,102657.53
2023-02-17T19:58:15.119Z,102652.84
2023-02-17T20:01:07.068Z,102656.16
2023-02-17T20:03:45.508Z,102665.50
2023-02-17T20:06:16.662Z,102646.75
2023-02-17T20:09:11.121Z,102659.88
2023-02-17T20:11:45.714Z,102661.28
2023-02-17T20:14:15.188Z,102651.69
2023-02-17T20:16:43.241Z,102671.59
2023-02-17T20:19:13.668Z,102651.28
2023-02-17T20:21:46.830Z,102649.38
2023-02-17T20:24:27.318Z,102671.28
2023-02-17T20:26:55.989Z,102664.66
2023-02-17T20:29:26.887Z,102667.31
2023-02-17T20:31:59.254Z,102668.97
2023-02-17T20:34:29.132Z,102663.81
2023-02-17T20:37:07.870Z,102666.81
2023-02-17T20:39:38.695Z,102661.50
2023-02-17T20:42:07.181Z,102659.94
2023-02-17T20:47:46.542Z,102670.88
2023-02-17T20:50:21.389Z,102663.19
2023-02-17T20:52:49.928Z,102668.97
2023-02-17T20:55:19.938Z,102666.06
2023-02-17T20:58:11.083Z,102668.72
2023-02-17T21:00:44.120Z,102674.06
2023-02-17T21:03:12.568Z,102665.06
2023-02-17T21:05:41.992Z,102664.50
2023-02-17T21:08:12.792Z,102665.78
2023-02-17T21:10:56.743Z,102653.66
2023-02-17T21:13:25.711Z,102663.00
2023-02-17T21:15:58.752Z,102675.00
2023-02-17T21:21:10.978Z,102679.06
2023-02-17T21:27:28.922Z,102677.28
2023-02-17T21:29:57.248Z,102676.81
2023-02-17T21:32:25.346Z,102670.53
2023-02-17T21:34:55.018Z,102670.44
2023-02-17T21:37:23.663Z,102667.78
2023-02-17T21:39:51.956Z,102658.31
2023-02-17T21:42:42.348Z,102640.25
2023-02-17T21:45:12.007Z,102641.53
2023-02-17T21:47:41.831Z,102660.75
2023-02-17T21:50:11.498Z,102668.53
2023-02-17T21:52:48.736Z,102655.97
2023-02-17T21:55:19.391Z,102655.75
2023-02-17T21:57:49.496Z,102643.66
2023-02-17T22:00:19.865Z,102659.63
2023-02-17T22:02:48.249Z,102664.75
2023-02-17T22:05:19.988Z,102668.13
2023-02-17T22:07:49.724Z,102649.00
2023-02-17T22:10:18.128Z,102663.25
2023-02-17T22:12:46.689Z,102666.63
2023-02-17T22:15:16.297Z,102678.13
2023-02-17T22:18:04.524Z,102676.97
2023-02-17T22:20:32.894Z,102664.06
2023-02-17T22:23:08.578Z,102666.88
2023-02-17T22:25:41.454Z,102670.13
2023-02-17T22:28:11.203Z,102684.94
2023-02-17T22:33:53.048Z,102668.63
2023-02-17T22:36:24.889Z,102673.59
2023-02-17T22:38:56.099Z,102670.84
2023-02-17T22:41:25.892Z,102671.47
2023-02-17T22:43:54.281Z,102672.66
2023-02-17T22:46:27.872Z,102675.59
2023-02-17T22:48:58.300Z,102665.69
2023-02-17T22:51:30.778Z,102653.69
2023-02-17T22:54:00.830Z,102670.16
2023-02-17T22:56:30.292Z,102675.38
2023-02-17T22:59:01.444Z,102653.56
2023-02-17T23:01:30.115Z,102653.13
2023-02-17T23:04:02.697Z,102664.38
2023-02-17T23:06:32.143Z,102662.19
2023-02-17T23:09:02.474Z,102647.28
2023-02-17T23:11:58.349Z,102661.22
2023-02-17T23:14:29.085Z,102658.22
2023-02-17T23:16:59.094Z,102633.25
2023-02-17T23:19:29.976Z,102652.28
2023-02-17T23:21:59.632Z,102631.75
2023-02-17T23:24:29.079Z,102639.28
2023-02-17T23:26:57.381Z,102644.16
2023-02-17T23:29:26.779Z,102643.28
2023-02-17T23:31:54.888Z,102643.94
2023-02-17T23:34:22.952Z,102619.94
2023-02-17T23:36:55.768Z,102660.53
2023-02-17T23:39:24.799Z,102658.00
2023-02-17T23:41:53.144Z,102650.97
2023-02-17T23:44:21.156Z,102645.38
2023-02-17T23:46:49.799Z,102647.09
2023-02-17T23:49:18.073Z,102636.22
2023-02-17T23:51:48.624Z,102622.34
2023-02-17T23:54:19.601Z,102632.81
2023-02-17T23:56:48.055Z,102630.06
2023-02-17T23:59:16.354Z,102624.09
